METAR Data
IDs: Format: Raw Decoded Include TAF

Data at: 0426 UTC 27 Jan 2021

METAR for:KFPK (Charotte/Beach Fld, MI, US)
Text:KFPK 270415Z AUTO 36006KT 10SM OVC020 M05/M07 A3010 RMK AO2 T10501075
Temperature: -5.0°C ( 23°F)
Dewpoint: -7.5°C ( 18°F) [RH = 83%]
Pressure (altimeter):30.10 inches Hg (1019.4 mb)
Winds:from the N (360 degrees) at 7 MPH (6 knots; 3.1 m/s)
Visibility:10 or more sm (16+ km)
Ceiling:2000 feet AGL
Clouds: overcast cloud deck at 2000 feet AGL
QC Flag:automated observation with no human augmentation

TAF for:KFPK (Charotte/Beach Fld, MI, US)
Text:No data found

METAR for:KLAN (Lansing/Capital City, MI, US)
Text:KLAN 270353Z 34006KT 10SM FEW019 OVC028 M05/M07 A3012 RMK AO2 SLP211 T10501072
Temperature: -5.0°C ( 23°F)
Dewpoint: -7.2°C ( 19°F) [RH = 85%]
Pressure (altimeter):30.12 inches Hg (1020.1 mb) [Sea level pressure: 1021.1 mb]
Winds:from the NNW (340 degrees) at 7 MPH (6 knots; 3.1 m/s)
Visibility:10 or more sm (16+ km)
Ceiling:2800 feet AGL
Clouds: few clouds at 1900 feet AGL, overcast cloud deck at 2800 feet AGL

TAF for:KLAN (Lansing/Capital City, MI, US) issued at 2340 UTC 26 Jan 2021
Text:KLAN 262340Z 2700/2724 35010KT P6SM OVC015
Forecast period:0000 to 0300 UTC 27 January 2021
Forecast type:FROM: standard forecast or significant change
Winds:from the N (350 degrees) at 12 MPH (10 knots; 5.1 m/s)
Visibility:6 or more sm (10+ km)
Ceiling:1500 feet AGL
Clouds: overcast cloud deck at 1500 feet AGL
Text:FM270300 35008KT P6SM SCT020 BKN070
Forecast period:0300 to 0600 UTC 27 January 2021
Forecast type:FROM: standard forecast or significant change
Winds:from the N (350 degrees) at 9 MPH (8 knots; 4.1 m/s)
Visibility:6 or more sm (10+ km)
Ceiling:7000 feet AGL
Clouds: scattered clouds at 2000 feet AGL, broken clouds at 7000 feet AGL
Text:FM270600 34004KT P6SM FEW030
Forecast period:0600 to 1800 UTC 27 January 2021
Forecast type:FROM: standard forecast or significant change
Winds:from the NNW (340 degrees) at 5 MPH (4 knots; 2.1 m/s)
Visibility:6 or more sm (10+ km)
Ceiling:at least 12,000 feet AGL
Clouds: few clouds at 3000 feet AGL
Text:FM271800 34008KT P6SM BKN030
Forecast period:1800 UTC 27 January 2021 to 0000 UTC 28 January 2021
Forecast type:FROM: standard forecast or significant change
Winds:from the NNW (340 degrees) at 9 MPH (8 knots; 4.1 m/s)
Visibility:6 or more sm (10+ km)
Ceiling:3000 feet AGL
Clouds: broken clouds at 3000 feet AGL